Latest Weather Observations for Kalumburu

IDW60801

Issued at 10:34 am WST Sunday 21 December 2014 (issued every 30 minutes, with the page automatically refreshed every 10 minutes)

About weather observations | Map of weather stations | Latest weather observations for WA | Other Formats
Station Details ID: 001019 Name: KALUMBURU Lat: -14.30 Lon: 126.65 Height: 23.0 m
Data from the previous 72 hours. | See also: Recent months at Kalumburu
Date/Time
WST
Temp
°C
App
Temp
°C
Dew
Point
Rel
Hum
%
Delta-T
°C
Wind Press
QNH
hPa
Press
MSL
hPa
Rain
since 9 am
mm
Dir
 
Spd
km/h
Gust
km/h
Spd
kts
Gust
kts
21/10:00am 33.5 38.1 23.8 57 6.8 SE 6 13 3 7 1008.8 1008.6 0.0
21/09:00am 32.5 37.7 24.8 64 5.4 SE 6 11 3 6 1009.1 1008.9 0.4
21/08:00am 30.3 34.8 24.0 69 4.4 S 7 9 4 5 1009.3 1009.1 0.4
21/07:30am 29.4 33.7 23.6 71 4.0 SSE 7 11 4 6 1009.1 1008.9 0.4
21/07:00am 28.7 33.1 23.8 75 3.4 SSW 7 11 4 6 1009.1 1008.9 0.4
21/06:00am 26.1 30.9 24.1 89 1.4 ESE 6 7 3 4 1008.4 1008.2 0.4
21/05:30am 24.9 29.1 23.1 90 1.2 ESE 6 9 3 5 1008.2 1008.0 0.4
21/05:00am 24.4 29.4 22.5 89 1.3 CALM 0 0 0 0 1007.8 1007.6 0.4
21/04:30am 24.6 29.7 22.7 89 1.3 CALM 0 0 0 0 1007.5 1007.3 0.4
21/04:00am 24.7 29.9 22.8 89 1.3 CALM 0 2 0 1 1007.2 1007.0 0.4
21/03:30am 24.7 29.9 22.8 89 1.3 CALM 0 4 0 2 1006.8 1006.6 0.4
21/03:00am 24.7 29.9 22.8 89 1.3 CALM 0 0 0 0 1006.8 1006.6 0.4
21/02:30am 24.6 29.6 22.5 88 1.4 CALM 0 0 0 0 1006.8 1006.6 0.4
21/02:00am 24.7 29.8 22.6 88 1.4 CALM 0 0 0 0 1006.7 1006.5 0.4
21/01:30am 25.0 30.1 22.7 87 1.6 CALM 0 0 0 0 1006.8 1006.6 0.4
21/01:00am 25.1 30.4 23.0 88 1.4 CALM 0 0 0 0 1007.0 1006.8 0.4
21/12:30am 25.0 29.0 22.7 87 1.6 SE 6 7 3 4 1007.4 1007.2 0.4
21/12:00am 25.4 30.5 22.7 85 1.8 CALM 0 0 0 0 1007.6 1007.4 0.4
 
Date/Time
WST
Temp
°C
App
Temp
°C
Dew
Point
Rel
Hum
%
Delta-T
°C
Wind Press
QNH
hPa
Press
MSL
hPa
Rain
since 9 am
mm
Dir
 
Spd
km/h
Gust
km/h
Spd
kts
Gust
kts
20/11:30pm 25.9 29.9 22.8 83 2.1 SSW 6 7 3 4 1008.1 1007.9 0.4
20/11:00pm 26.0 30.1 22.9 83 2.1 WSW 6 7 3 4 1008.7 1008.5 0.4
20/10:30pm 25.9 31.1 22.8 83 2.1 CALM 0 0 0 0 1008.8 1008.6 0.4
20/10:00pm 26.1 31.3 22.8 82 2.2 CALM 0 0 0 0 1009.0 1008.8 0.4
20/09:30pm 26.1 30.0 22.6 81 2.4 SE 6 7 3 4 1009.3 1009.1 0.4
20/09:00pm 26.1 29.8 22.6 81 2.4 SSE 7 11 4 6 1009.3 1009.1 0.4
20/08:30pm 26.2 30.0 22.7 81 2.4 SSE 7 15 4 8 1009.0 1008.8 0.4
20/08:00pm 26.2 29.7 22.9 82 2.2 S 9 15 5 8 1008.8 1008.6 0.2
20/07:30pm 25.9 30.0 23.0 84 2.0 SE 6 9 3 5 1008.5 1008.3 0.2
20/07:00pm 25.6 29.4 22.7 84 2.0 E 7 9 4 5 1008.0 1007.8 0.2
20/06:00pm 26.0 29.4 22.7 82 2.2 SW 9 15 5 8 1007.4 1007.2 0.2
20/05:30pm 25.9 29.5 23.0 84 2.0 NNW 9 15 5 8 1006.7 1006.5 0.2
20/05:00pm 25.7 29.8 22.2 81 2.4 SSW 4 13 2 7 1007.0 1006.8 0.2
20/04:30pm 26.2 28.5 22.1 78 2.7 W 13 20 7 11 1007.3 1007.1 0.2
20/04:00pm 27.9 30.6 23.5 77 3.0 N 15 20 8 11 1006.6 1006.4 0.2
20/03:30pm 30.6 32.4 21.9 59 5.9 NNW 15 20 8 11 1006.1 1005.9 0.0
20/03:00pm 31.1 32.5 21.9 58 6.2 NNW 17 26 9 14 1005.9 1005.7 0.0
20/02:30pm 32.9 34.6 23.0 56 6.8 NNW 19 28 10 15 1005.8 1005.6 0.0
20/02:00pm 32.7 34.1 22.5 55 7.0 N 19 32 10 17 1006.0 1005.8 0.0
20/01:30pm 34.9 37.3 20.8 43 9.5 NW 9 13 5 7 1006.1 1005.9 0.0
20/01:00pm 34.4 37.9 22.1 48 8.4 N 7 11 4 6 1006.5 1006.3 0.0
20/12:30pm 34.4 38.2 22.8 51 8.0 NW 7 15 4 8 1006.9 1006.7 0.0
20/12:00pm 33.7 38.2 23.7 56 7.0 ENE 6 9 3 5 1007.6 1007.4 0.0
20/11:30am 33.0 37.1 23.0 55 6.9 NNW 6 11 3 6 1008.1 1007.9 0.0
20/11:00am 32.3 35.4 22.1 55 7.0 N 9 11 5 6 1008.5 1008.3 0.0
20/10:30am 31.6 34.1 21.7 55 6.7 NNE 11 15 6 8 1009.2 1009.0 0.0
20/10:00am 32.2 35.3 22.9 58 6.4 N 11 17 6 9 1009.7 1009.5 0.0
20/09:30am 31.3 34.3 22.0 57 6.3 NE 9 11 5 6 1010.2 1010.0 0.0
20/09:00am 31.9 35.6 22.3 56 6.6 W 6 7 3 4 1010.4 1010.2 0.0
20/08:30am 31.1 35.4 22.7 61 5.7 NW 4 11 2 6 1010.7 1010.5 0.0
20/08:00am 31.2 35.4 21.7 57 6.4 SW 2 7 1 4 1010.8 1010.6 0.0
20/07:30am 30.3 34.1 21.7 60 5.8 NE 4 7 2 4 1010.9 1010.7 0.0
20/07:00am 29.0 33.2 21.7 64 4.9 WSW 2 6 1 3 1010.4 1010.2 0.0
20/06:30am 27.8 31.1 21.8 70 4.0 S 7 11 4 6 1010.4 1010.2 0.0
20/06:00am 26.5 29.6 21.5 74 3.3 SSE 7 11 4 6 1010.5 1010.3 0.0
20/05:30am 25.6 28.8 21.3 77 2.8 SSE 6 7 3 4 1010.2 1010.0 0.0
20/05:00am 25.8 29.7 21.2 76 3.0 SE 2 9 1 5 1009.5 1009.3 0.0
20/04:30am 25.8 29.7 21.9 79 2.6 SE 4 7 2 4 1009.0 1008.8 0.0
20/04:00am 26.4 29.6 21.6 75 3.2 S 7 9 4 5 1008.7 1008.5 0.0
20/03:30am 26.3 29.0 21.3 74 3.3 S 9 11 5 6 1008.8 1008.6 0.0
20/03:00am 25.8 30.5 21.9 79 2.6 CALM 0 2 0 1 1008.9 1008.7 0.0
20/02:30am 25.9 29.8 22.6 82 2.2 SSW 6 9 3 5 1009.1 1008.9 0.0
20/02:00am 26.2 31.2 22.5 80 2.5 CALM 0 0 0 0 1008.7 1008.5 0.0
20/01:30am 26.6 30.8 22.4 78 2.8 ESE 4 7 2 4 1008.8 1008.6 0.0
20/01:00am 26.9 31.8 22.3 76 3.1 CALM 0 7 0 4 1008.9 1008.7 0.0
20/12:30am 27.1 31.7 22.5 76 3.1 S 2 6 1 3 1009.4 1009.2 0.0
20/12:00am 27.4 32.5 22.6 75 3.3 CALM 0 7 0 4 1010.2 1010.0 0.0
 
Date/Time
WST
Temp
°C
App
Temp
°C
Dew
Point
Rel
Hum
%
Delta-T
°C
Wind Press
QNH
hPa
Press
MSL
hPa
Rain
since 9 am
mm
Dir
 
Spd
km/h
Gust
km/h
Spd
kts
Gust
kts
19/11:30pm 27.4 31.0 22.3 73 3.4 SE 7 15 4 8 1010.5 1010.3 0.0
19/11:00pm 27.0 31.0 22.8 78 2.9 SSE 6 13 3 7 1011.2 1011.0 0.0
19/10:30pm 26.3 30.7 23.4 84 2.0 S 6 9 3 5 1010.9 1010.7 0.0
19/10:00pm 26.7 30.9 23.4 82 2.3 S 7 13 4 7 1010.9 1010.7 0.0
19/09:30pm 26.8 31.1 23.3 81 2.4 SSW 6 9 3 5 1010.6 1010.4 0.0
19/09:00pm 26.1 31.5 23.2 84 2.0 CALM 0 0 0 0 1010.2 1010.0 0.0
19/08:30pm 26.3 31.1 22.8 81 2.4 ESE 2 6 1 3 1010.1 1009.9 0.0
19/08:00pm 26.2 30.5 23.3 84 2.0 ESE 6 7 3 4 1009.8 1009.6 0.0
19/07:30pm 26.3 31.5 22.8 81 2.4 CALM 0 0 0 0 1009.4 1009.2 0.0
19/07:00pm 26.5 30.5 22.8 80 2.5 SSE 6 7 3 4 1009.1 1008.9 0.0
19/06:30pm 26.7 31.4 21.9 75 3.2 CALM 0 0 0 0 1008.7 1008.5 0.0
19/06:00pm 27.2 31.5 21.9 73 3.6 SSE 2 6 1 3 1008.8 1008.6 0.0
19/05:30pm 27.2 30.8 21.2 69 4.0 S 4 7 2 4 1008.4 1008.2 0.0
19/05:00pm 27.5 30.6 21.1 68 4.3 SSE 6 9 3 5 1007.7 1007.5 0.0
19/04:30pm 28.2 30.3 21.0 65 4.8 SSW 11 20 6 11 1008.1 1007.9 0.0
19/04:00pm 28.1 31.3 21.6 68 4.4 ESE 7 11 4 6 1007.2 1007.0 0.0
19/03:30pm 29.3 32.7 22.0 64 4.9 E 7 17 4 9 1007.1 1006.9 0.0
19/03:00pm 30.4 34.6 24.8 72 3.9 N 11 19 6 10 1007.3 1007.1 0.0
19/02:30pm 30.9 33.4 23.8 66 4.9 N 17 28 9 15 1007.3 1007.1 0.0
19/02:00pm 31.1 32.8 24.0 66 4.9 N 22 32 12 17 1007.0 1006.8 0.0
19/01:30pm 33.3 35.3 24.5 60 6.2 N 22 35 12 19 1007.3 1007.1 0.0
19/01:00pm 34.2 36.5 25.0 58 6.5 N 22 35 12 19 1008.2 1008.0 0.0
19/12:30pm 34.9 36.7 23.2 50 8.1 NNW 19 26 10 14 1008.4 1008.2 0.0
19/12:00pm 34.8 37.3 23.2 51 8.1 NNW 15 20 8 11 1008.8 1008.6 0.0
19/11:30am 36.0 39.9 22.5 45 9.3 N 6 15 3 8 1009.0 1008.8 0.0
19/11:00am 35.5 39.3 22.8 47 8.8 NE 7 11 4 6 1009.3 1009.1 0.0
19/10:30am 34.7 37.7 22.7 49 8.3 NNE 11 19 6 10 1009.6 1009.4 0.0
19/10:00am 34.6 39.1 23.9 53 7.5 NNE 7 13 4 7 1009.7 1009.5 0.0
19/09:30am 34.0 37.2 22.4 50 8.0 NE 9 19 5 10 1010.0 1009.8 0.0
19/09:00am 33.7 36.8 22.1 50 7.9 ENE 9 15 5 8 1010.1 1009.9 0.6
19/08:30am 32.8 37.6 22.9 56 6.8 NNW 2 6 1 3 1010.2 1010.0 0.6
19/08:00am 32.1 35.9 22.8 58 6.4 SE 7 11 4 6 1010.1 1009.9 0.4
19/07:30am 30.6 34.9 23.3 65 5.0 ESE 6 7 3 4 1010.1 1009.9 0.4
19/07:00am 28.2 32.3 22.9 73 3.6 SSE 6 7 3 4 1009.7 1009.5 0.4
19/06:30am 27.9 31.9 22.8 74 3.5 SSW 6 9 3 5 1009.7 1009.5 0.4
19/06:00am 26.9 31.7 22.9 79 2.7 WSW 2 11 1 6 1009.2 1009.0 0.4
19/05:30am 26.5 30.3 22.8 80 2.5 SSE 7 11 4 6 1008.5 1008.3 0.4
19/05:00am 26.4 29.5 22.9 81 2.4 S 11 17 6 9 1008.3 1008.1 0.4
19/04:30am 26.2 29.8 23.1 83 2.1 S 9 15 5 8 1007.9 1007.7 0.4
19/04:00am 25.9 29.5 23.0 84 2.0 SSE 9 13 5 7 1007.9 1007.7 0.4
19/03:30am 25.7 29.8 23.0 85 1.8 SSE 6 9 3 5 1007.9 1007.7 0.4
19/03:00am 25.6 29.8 23.1 86 1.7 S 6 11 3 6 1007.8 1007.6 0.4
19/02:30am 25.6 29.6 23.1 86 1.7 SSE 7 13 4 7 1008.2 1008.0 0.4
19/02:00am 25.4 29.2 22.7 85 1.8 SSE 7 13 4 7 1008.4 1008.2 0.4
19/01:30am 25.4 27.9 22.5 84 2.0 S 13 19 7 10 1008.7 1008.5 0.4
19/01:00am 25.0 28.1 22.1 84 1.9 SSE 9 11 5 6 1009.2 1009.0 0.4
19/12:30am 25.0 27.8 22.3 85 1.8 SSW 11 17 6 9 1009.5 1009.3 0.4
19/12:00am 25.1 27.8 22.2 84 1.9 SSE 11 15 6 8 1009.7 1009.5 0.4
 
Date/Time
WST
Temp
°C
App
Temp
°C
Dew
Point
Rel
Hum
%
Delta-T
°C
Wind Press
QNH
hPa
Press
MSL
hPa
Rain
since 9 am
mm
Dir
 
Spd
km/h
Gust
km/h
Spd
kts
Gust
kts
18/11:30pm 25.0 28.3 22.5 86 1.7 SSE 9 15 5 8 1010.3 1010.1 0.4
18/11:00pm 25.0 27.1 22.5 86 1.7 SSE 15 24 8 13 1011.5 1011.3 0.4
18/10:30pm 25.0 26.9 22.7 87 1.6 S 17 28 9 15 1011.7 1011.5 0.4
18/10:00pm 26.6 26.1 21.4 73 3.5 SSE 26 43 14 23 1011.8 1011.6 0.0
18/09:30pm 30.3 36.6 25.4 75 3.5 W 2 11 1 6 1010.7 1010.5 0.0
18/09:00pm 30.2 35.7 25.3 75 3.5 WNW 6 13 3 7 1010.0 1009.8 0.0
18/08:30pm 30.4 35.1 25.0 73 3.8 WNW 9 15 5 8 1009.8 1009.6 0.0
18/08:00pm 30.7 35.3 24.8 71 4.1 W 9 15 5 8 1009.0 1008.8 0.0
18/07:30pm 31.1 34.9 24.7 68 4.5 WNW 13 20 7 11 1008.1 1007.9 0.0
18/07:00pm 31.0 35.4 24.4 68 4.6 NW 9 15 5 8 1007.6 1007.4 0.0
18/06:30pm 31.9 35.3 23.4 60 5.9 WNW 11 15 6 8 1007.3 1007.1 0.0
18/06:00pm 31.9 35.7 23.4 60 5.9 NW 9 15 5 8 1007.0 1006.8 0.0
18/05:30pm 32.2 35.0 24.3 63 5.5 N 17 26 9 14 1006.2 1006.0 0.0
18/05:00pm 32.9 35.4 23.8 58 6.4 N 17 22 9 12 1005.6 1005.4 0.0
18/04:30pm 33.2 35.1 23.5 56 6.7 N 19 26 10 14 1005.4 1005.2 0.0
18/04:00pm 33.8 35.9 23.8 56 7.0 N 19 28 10 15 1005.1 1004.9 0.0
18/03:30pm 34.0 36.4 24.3 57 6.8 N 19 28 10 15 1005.0 1004.8 0.0
18/03:00pm 34.2 36.0 23.2 52 7.6 N 19 28 10 15 1005.2 1005.0 0.0
18/02:30pm 34.8 37.5 24.1 53 7.5 N 17 24 9 13 1005.7 1005.5 0.0
18/02:00pm 35.0 38.4 24.0 53 7.7 NNW 13 26 7 14 1005.8 1005.6 0.0
18/01:30pm 34.9 37.6 22.9 49 8.3 NNW 13 19 7 10 1006.0 1005.8 0.0
18/01:00pm 35.4 38.4 22.7 47 8.8 NNW 11 17 6 9 1006.7 1006.5 0.0
18/12:30pm 35.4 40.7 25.0 55 7.4 NNW 6 11 3 6 1007.2 1007.0 0.0
18/12:00pm 35.1 38.6 22.1 47 8.9 S 7 15 4 8 1007.9 1007.7 0.0
18/11:30am 34.7 38.7 23.1 51 8.0 WSW 7 11 4 6 1008.5 1008.3 0.0
18/11:00am 34.5 37.8 21.9 48 8.6 SSW 7 13 4 7 1008.8 1008.6 0.0

Other Formats:

Comma delimited format used in spreadsheet applications
http://www.bom.gov.au/fwo/IDW60801/IDW60801.94100.axf

JavaScript Object Notation format (JSON) in row-major order
http://www.bom.gov.au/fwo/IDW60801/IDW60801.94100.json